createdAt,value
2017-01-16T00:00:42.028Z,0
2017-01-16T00:01:47.241Z,0
2017-01-16T00:02:52.472Z,0
2017-01-16T00:03:57.639Z,0
2017-01-16T00:05:02.843Z,0
2017-01-16T00:06:08.017Z,0
2017-01-16T00:07:12.223Z,0
2017-01-16T00:08:18.519Z,0
2017-01-16T00:09:24.651Z,0
2017-01-16T00:10:29.870Z,0
2017-01-16T00:11:35.040Z,0
2017-01-16T00:12:38.304Z,0
2017-01-16T00:13:44.533Z,0
2017-01-16T00:14:50.693Z,0
2017-01-16T00:15:56.859Z,0
2017-01-16T00:17:03.022Z,0
2017-01-16T00:18:09.188Z,0
2017-01-16T00:19:15.381Z,0
2017-01-16T00:20:19.611Z,0
2017-01-16T00:21:24.816Z,0
2017-01-16T00:22:30.975Z,0
2017-01-16T00:23:36.221Z,0
2017-01-16T00:24:38.491Z,0
2017-01-16T00:25:43.652Z,0
2017-01-16T00:26:49.824Z,0
2017-01-16T00:27:55.027Z,0
2017-01-16T00:29:00.290Z,0
2017-01-16T00:30:05.501Z,0
2017-01-16T00:31:10.697Z,0
2017-01-16T00:32:16.945Z,0
2017-01-16T00:33:22.457Z,0
2017-01-16T00:34:28.584Z,0
2017-01-16T00:35:34.753Z,0
2017-01-16T00:36:40.916Z,0
2017-01-16T00:37:45.125Z,0
2017-01-16T00:38:50.374Z,0
2017-01-16T00:39:55.568Z,0
2017-01-16T00:41:01.742Z,0
2017-01-16T00:42:07.906Z,0
2017-01-16T00:43:14.087Z,0
2017-01-16T00:44:19.286Z,0
2017-01-16T00:45:24.486Z,0
2017-01-16T00:46:27.759Z,0
2017-01-16T00:47:33.897Z,0
2017-01-16T00:48:38.108Z,0
2017-01-16T00:49:43.336Z,0
2017-01-16T00:50:47.539Z,0
2017-01-16T00:51:52.739Z,0
2017-01-16T00:52:57.941Z,0
2017-01-16T00:54:03.237Z,0
2017-01-16T00:55:09.391Z,0
2017-01-16T00:56:15.549Z,0
2017-01-16T00:57:21.722Z,0
2017-01-16T00:58:25.922Z,0
2017-01-16T00:59:31.222Z,0
2017-01-16T01:00:36.427Z,0
2017-01-16T01:01:42.596Z,0
2017-01-16T01:02:47.788Z,0
2017-01-16T01:03:52.022Z,0
2017-01-16T01:04:58.180Z,0
2017-01-16T01:06:00.477Z,0
2017-01-16T01:07:05.698Z,0
2017-01-16T01:08:11.854Z,0
2017-01-16T01:09:17.023Z,0
2017-01-16T01:10:19.320Z,0
2017-01-16T01:11:24.522Z,0
2017-01-16T01:12:28.743Z,0
2017-01-16T01:13:32.974Z,0
2017-01-16T01:14:39.132Z,0
2017-01-16T01:15:43.415Z,0
2017-01-16T01:16:48.609Z,0
2017-01-16T01:17:53.807Z,0
2017-01-16T01:18:59.981Z,0
2017-01-16T01:20:04.234Z,0
2017-01-16T01:21:10.405Z,0
2017-01-16T01:22:14.647Z,0
2017-01-16T01:23:20.864Z,0
2017-01-16T01:24:27.004Z,0
2017-01-16T01:25:33.230Z,0
2017-01-16T01:26:39.405Z,0
2017-01-16T01:27:42.643Z,0
2017-01-16T01:28:46.890Z,0
2017-01-16T01:29:52.081Z,0
2017-01-16T01:30:57.282Z,0
2017-01-16T01:32:03.447Z,0
2017-01-16T01:33:09.616Z,0
2017-01-16T01:34:14.802Z,0
2017-01-16T01:35:20.968Z,0
2017-01-16T01:36:25.175Z,0
2017-01-16T01:37:30.363Z,0
2017-01-16T01:38:34.590Z,0
2017-01-16T01:39:40.789Z,0
2017-01-16T01:40:46.057Z,0
2017-01-16T01:41:51.221Z,0
2017-01-16T01:42:57.391Z,0
2017-01-16T01:44:02.585Z,0
2017-01-16T01:45:06.803Z,0
2017-01-16T01:46:10.993Z,0
2017-01-16T01:47:16.197Z,0
2017-01-16T01:48:21.402Z,0
2017-01-16T01:49:26.720Z,0
2017-01-16T01:50:31.920Z,0
2017-01-16T01:51:38.081Z,0
2017-01-16T01:52:43.280Z,0
2017-01-16T01:53:47.485Z,0
2017-01-16T01:54:50.781Z,0
2017-01-16T01:55:56.946Z,0
2017-01-16T01:57:03.118Z,0
2017-01-16T01:58:08.315Z,0
2017-01-16T01:59:11.541Z,0
2017-01-16T02:00:15.804Z,0
2017-01-16T02:01:22.060Z,0
2017-01-16T02:02:26.259Z,0
2017-01-16T02:03:31.471Z,0
2017-01-16T02:04:36.672Z,0
2017-01-16T02:05:41.870Z,0
2017-01-16T02:06:48.032Z,0
2017-01-16T02:07:54.225Z,0
2017-01-16T02:09:00.390Z,0
2017-01-16T02:10:04.734Z,0
2017-01-16T02:11:10.912Z,0
2017-01-16T02:12:14.161Z,0
2017-01-16T02:13:19.363Z,0
2017-01-16T02:14:24.565Z,0
2017-01-16T02:15:28.758Z,0
2017-01-16T02:16:33.961Z,0
2017-01-16T02:17:40.130Z,0
2017-01-16T02:18:46.291Z,0
2017-01-16T02:19:50.519Z,0
2017-01-16T02:20:55.733Z,0
2017-01-16T02:22:01.903Z,0
2017-01-16T02:23:08.065Z,0
2017-01-16T02:24:14.227Z,0
2017-01-16T02:25:20.434Z,0
2017-01-16T02:26:25.597Z,0
2017-01-16T02:27:29.800Z,0
2017-01-16T02:28:35.052Z,0
2017-01-16T02:29:39.282Z,0
2017-01-16T02:30:45.495Z,0
2017-01-16T02:31:49.681Z,0
2017-01-16T02:32:53.908Z,0
2017-01-16T02:33:59.796Z,0
2017-01-16T02:35:05.959Z,0
2017-01-16T02:36:12.121Z,0
2017-01-16T02:37:18.291Z,0
2017-01-16T02:38:24.459Z,0
2017-01-16T02:39:29.661Z,0
2017-01-16T02:40:33.891Z,0
2017-01-16T02:41:36.151Z,0
2017-01-16T02:42:41.445Z,0
2017-01-16T02:43:46.627Z,0
2017-01-16T02:44:52.790Z,0
2017-01-16T02:45:57.960Z,0
2017-01-16T02:47:04.129Z,0
2017-01-16T02:48:10.287Z,0
2017-01-16T02:49:15.496Z,0
2017-01-16T02:50:20.722Z,0
2017-01-16T02:51:27.011Z,0
2017-01-16T02:52:33.613Z,0
2017-01-16T02:53:39.862Z,0
2017-01-16T02:54:44.066Z,0
2017-01-16T02:55:49.237Z,0
2017-01-16T02:56:53.435Z,0
2017-01-16T02:57:59.723Z,0
2017-01-16T02:59:04.948Z,0
2017-01-16T03:00:11.233Z,0
2017-01-16T03:01:17.402Z,0
2017-01-16T03:02:22.919Z,0
2017-01-16T03:03:29.089Z,0
2017-01-16T03:04:33.322Z,0
2017-01-16T03:05:38.530Z,0
2017-01-16T03:06:44.667Z,0
2017-01-16T03:07:49.879Z,0
2017-01-16T03:08:56.045Z,0
2017-01-16T03:10:02.209Z,0
2017-01-16T03:11:08.384Z,0
2017-01-16T03:12:14.685Z,0
2017-01-16T03:13:20.822Z,0
2017-01-16T03:14:26.021Z,0
2017-01-16T03:15:32.194Z,0
2017-01-16T03:16:36.392Z,0
2017-01-16T03:17:41.651Z,0
2017-01-16T03:18:46.815Z,0
2017-01-16T03:19:52.979Z,0
2017-01-16T03:20:58.174Z,0
2017-01-16T03:22:02.432Z,0
2017-01-16T03:23:07.635Z,0
2017-01-16T03:24:13.808Z,0
2017-01-16T03:25:17.066Z,0
2017-01-16T03:26:22.378Z,0
2017-01-16T03:27:28.534Z,0
2017-01-16T03:28:32.797Z,0
2017-01-16T03:29:37.932Z,0
2017-01-16T03:30:43.126Z,0
2017-01-16T03:31:48.329Z,0
2017-01-16T03:32:54.480Z,0
2017-01-16T03:34:00.647Z,0
2017-01-16T03:35:06.977Z,0
2017-01-16T03:36:13.145Z,0
2017-01-16T03:37:17.344Z,0
2017-01-16T03:38:20.604Z,0
2017-01-16T03:39:25.775Z,0
2017-01-16T03:40:31.939Z,0
2017-01-16T03:41:37.101Z,0
2017-01-16T03:42:42.290Z,0
2017-01-16T03:43:47.479Z,0
2017-01-16T03:44:53.640Z,0
2017-01-16T03:45:57.871Z,0
2017-01-16T03:47:02.070Z,0
2017-01-16T03:48:07.238Z,0
2017-01-16T03:49:10.527Z,0
2017-01-16T03:50:16.717Z,0
2017-01-16T03:51:22.204Z,0
2017-01-16T03:52:28.380Z,0
2017-01-16T03:53:33.579Z,0
2017-01-16T03:54:38.785Z,0
2017-01-16T03:55:43.921Z,0
2017-01-16T03:56:47.170Z,0
2017-01-16T03:57:53.328Z,0
2017-01-16T03:58:58.589Z,0
2017-01-16T04:00:04.765Z,0
2017-01-16T04:01:09.955Z,0
2017-01-16T04:02:15.232Z,0
2017-01-16T04:03:21.393Z,0
2017-01-16T04:04:27.662Z,0
2017-01-16T04:05:32.869Z,0
2017-01-16T04:06:38.073Z,0
2017-01-16T04:07:42.302Z,0
2017-01-16T04:08:47.661Z,0
2017-01-16T04:09:53.805Z,0
2017-01-16T04:10:58.969Z,0
2017-01-16T04:12:03.294Z,0
2017-01-16T04:13:08.495Z,0
2017-01-16T04:14:12.724Z,0
2017-01-16T04:15:16.955Z,0
2017-01-16T04:16:22.151Z,0
2017-01-16T04:17:26.370Z,0
2017-01-16T04:18:31.569Z,0
2017-01-16T04:19:36.733Z,0
2017-01-16T04:20:41.929Z,0
2017-01-16T04:21:46.156Z,0
2017-01-16T04:22:52.322Z,0
2017-01-16T04:23:57.489Z,0
2017-01-16T04:25:02.679Z,0
2017-01-16T04:26:08.923Z,0
2017-01-16T04:27:14.242Z,0
2017-01-16T04:28:19.449Z,0
2017-01-16T04:29:25.632Z,0
2017-01-16T04:30:28.882Z,0
2017-01-16T04:31:35.044Z,0
2017-01-16T04:32:40.250Z,0
2017-01-16T04:33:45.455Z,0
2017-01-16T04:34:50.618Z,0
2017-01-16T04:35:55.820Z,0
2017-01-16T04:37:01.979Z,0
2017-01-16T04:38:05.237Z,0
2017-01-16T04:39:09.454Z,0
2017-01-16T04:40:15.617Z,0
2017-01-16T04:41:21.824Z,0
2017-01-16T04:42:26.984Z,0
2017-01-16T04:43:32.171Z,0
2017-01-16T04:44:37.373Z,0
2017-01-16T04:45:42.572Z,0
2017-01-16T04:46:46.794Z,0
2017-01-16T04:47:52.964Z,0
2017-01-16T04:48:59.257Z,0
2017-01-16T04:50:04.457Z,0
2017-01-16T04:51:08.673Z,0
2017-01-16T04:52:12.906Z,0
2017-01-16T04:53:18.115Z,0
2017-01-16T04:54:24.275Z,0
2017-01-16T04:55:28.513Z,0
2017-01-16T04:56:34.668Z,0
2017-01-16T04:57:39.938Z,0
2017-01-16T04:58:45.139Z,0
2017-01-16T04:59:49.458Z,0
2017-01-16T05:00:54.622Z,0
2017-01-16T05:02:00.785Z,0
2017-01-16T05:03:06.033Z,0
2017-01-16T05:04:11.204Z,0
2017-01-16T05:05:16.397Z,0
2017-01-16T05:06:21.590Z,0
2017-01-16T05:07:26.785Z,0
2017-01-16T05:08:31.983Z,0
2017-01-16T05:09:35.213Z,0
2017-01-16T05:10:40.412Z,0
2017-01-16T05:11:45.576Z,0
2017-01-16T05:12:50.778Z,0
2017-01-16T05:13:56.949Z,0
2017-01-16T05:15:02.147Z,0
2017-01-16T05:16:07.336Z,0
2017-01-16T05:17:10.672Z,0
2017-01-16T05:18:14.901Z,0
2017-01-16T05:19:21.073Z,0
2017-01-16T05:20:27.274Z,0
2017-01-16T05:21:31.472Z,0
2017-01-16T05:22:37.627Z,0
2017-01-16T05:23:41.828Z,0
2017-01-16T05:24:47.991Z,0
2017-01-16T05:25:53.180Z,0
2017-01-16T05:26:57.490Z,0
2017-01-16T05:28:03.655Z,0
2017-01-16T05:29:07.893Z,0
2017-01-16T05:30:13.154Z,0
2017-01-16T05:31:19.347Z,0
2017-01-16T05:32:24.504Z,0
2017-01-16T05:33:29.736Z,0
2017-01-16T05:34:35.857Z,0
2017-01-16T05:35:41.068Z,0
2017-01-16T05:36:47.216Z,0
2017-01-16T05:37:50.455Z,0
2017-01-16T05:38:56.618Z,0
2017-01-16T05:40:02.822Z,0
2017-01-16T05:41:08.958Z,0
2017-01-16T05:42:13.159Z,0
2017-01-16T05:43:19.323Z,0
2017-01-16T05:44:24.515Z,0
2017-01-16T05:45:29.713Z,0
2017-01-16T05:46:35.878Z,0
2017-01-16T05:47:39.168Z,0
2017-01-16T05:48:44.361Z,0
2017-01-16T05:49:50.520Z,0
2017-01-16T05:50:56.688Z,0
2017-01-16T05:52:00.914Z,0
2017-01-16T05:53:05.119Z,0
2017-01-16T05:54:11.293Z,0
2017-01-16T05:55:16.483Z,0
2017-01-16T05:56:20.836Z,0
2017-01-16T05:57:26.039Z,0
2017-01-16T05:58:31.294Z,0
2017-01-16T05:59:35.638Z,0
2017-01-16T06:00:39.868Z,0
2017-01-16T06:01:46.029Z,0
2017-01-16T06:02:50.358Z,0
2017-01-16T06:03:56.523Z,0
2017-01-16T06:05:02.694Z,0
2017-01-16T06:06:06.912Z,0
2017-01-16T06:07:12.159Z,0
2017-01-16T06:08:16.321Z,0
2017-01-16T06:09:20.557Z,0
2017-01-16T06:10:26.721Z,0
2017-01-16T06:11:32.889Z,0
2017-01-16T06:12:37.083Z,0
2017-01-16T06:13:43.241Z,0
2017-01-16T06:14:49.400Z,0
2017-01-16T06:15:54.708Z,0
2017-01-16T06:16:59.619Z,0
2017-01-16T06:18:04.815Z,0
2017-01-16T06:19:10.994Z,0
2017-01-16T06:20:16.184Z,0
2017-01-16T06:21:20.386Z,0
2017-01-16T06:22:25.582Z,0
2017-01-16T06:23:31.747Z,0
2017-01-16T06:24:36.951Z,0
2017-01-16T06:25:41.180Z,0
2017-01-16T06:26:47.335Z,0
2017-01-16T06:27:49.610Z,0
2017-01-16T06:28:55.784Z,0
2017-01-16T06:29:59.085Z,0
2017-01-16T06:31:04.279Z,0
2017-01-16T06:32:09.477Z,0
2017-01-16T06:33:15.650Z,0
2017-01-16T06:34:20.850Z,0
2017-01-16T06:35:26.043Z,0
2017-01-16T06:36:30.280Z,0
2017-01-16T06:37:35.452Z,0
2017-01-16T06:38:40.663Z,0
2017-01-16T06:39:46.828Z,0
2017-01-16T06:40:52.027Z,0
2017-01-16T06:41:58.199Z,0
2017-01-16T06:43:04.363Z,0
2017-01-16T06:44:10.536Z,0
2017-01-16T06:45:16.717Z,0
2017-01-16T06:46:21.267Z,0
2017-01-16T06:47:27.434Z,0
2017-01-16T06:48:32.623Z,0
2017-01-16T06:49:38.480Z,0
2017-01-16T06:50:44.677Z,0
2017-01-16T06:51:49.871Z,0
2017-01-16T06:52:55.047Z,0
2017-01-16T06:54:01.216Z,0
2017-01-16T06:55:06.412Z,0
2017-01-16T06:56:10.617Z,0
2017-01-16T06:57:14.901Z,4
2017-01-16T06:58:16.310Z,4
2017-01-16T06:59:21.522Z,0
2017-01-16T07:00:26.721Z,4
2017-01-16T07:01:31.902Z,4
2017-01-16T07:02:38.066Z,4
2017-01-16T07:03:43.265Z,4
2017-01-16T07:04:49.430Z,4
2017-01-16T07:05:55.709Z,8
2017-01-16T07:07:01.875Z,4
2017-01-16T07:08:06.106Z,8
2017-01-16T07:09:12.266Z,12
2017-01-16T07:10:17.455Z,12
2017-01-16T07:11:23.618Z,16
2017-01-16T07:12:28.823Z,12
2017-01-16T07:13:33.048Z,12
2017-01-16T07:14:37.278Z,20
2017-01-16T07:15:42.448Z,28
2017-01-16T07:16:47.629Z,32
2017-01-16T07:17:53.850Z,36
2017-01-16T07:18:59.057Z,36
2017-01-16T07:20:05.226Z,44
2017-01-16T07:21:10.424Z,44
2017-01-16T07:22:16.584Z,56
2017-01-16T07:23:21.847Z,68
2017-01-16T07:24:27.032Z,76
2017-01-16T07:25:33.196Z,84
2017-01-16T07:26:39.371Z,92
2017-01-16T07:27:45.535Z,88
2017-01-16T07:28:50.702Z,96
2017-01-16T07:29:55.965Z,104
2017-01-16T07:31:02.154Z,112
2017-01-16T07:32:07.128Z,112
2017-01-16T07:33:12.322Z,128
2017-01-16T07:34:16.534Z,128
2017-01-16T07:35:22.699Z,128
2017-01-16T07:36:28.877Z,144
2017-01-16T07:37:35.039Z,184
2017-01-16T07:38:39.272Z,208
2017-01-16T07:39:45.456Z,232
2017-01-16T07:40:50.703Z,240
2017-01-16T07:41:55.908Z,256
2017-01-16T07:43:00.214Z,256
2017-01-16T07:44:06.481Z,264
2017-01-16T07:45:11.675Z,284
2017-01-16T07:46:15.912Z,296
2017-01-16T07:47:22.118Z,316
2017-01-16T07:48:27.277Z,348
2017-01-16T07:49:33.457Z,352
2017-01-16T07:50:38.629Z,380
2017-01-16T07:51:44.800Z,392
2017-01-16T07:52:50.989Z,400
2017-01-16T07:53:57.256Z,408
2017-01-16T07:55:03.506Z,424
2017-01-16T07:56:08.611Z,472
2017-01-16T07:57:13.818Z,516
2017-01-16T07:58:19.982Z,552
2017-01-16T07:59:24.205Z,572
2017-01-16T08:00:29.413Z,600
2017-01-16T08:01:34.614Z,632
2017-01-16T08:02:38.821Z,660
2017-01-16T08:03:44.986Z,684
2017-01-16T08:04:50.149Z,672
2017-01-16T08:05:56.313Z,656
2017-01-16T08:07:01.581Z,692
2017-01-16T08:08:07.351Z,696
2017-01-16T08:09:13.515Z,700
2017-01-16T08:10:17.726Z,724
2017-01-16T08:11:23.892Z,768
2017-01-16T08:12:30.057Z,820
2017-01-16T08:13:35.359Z,848
2017-01-16T08:14:41.548Z,848
2017-01-16T08:15:47.707Z,876
2017-01-16T08:16:53.864Z,948
2017-01-16T08:18:00.027Z,952
2017-01-16T08:19:06.196Z,916
2017-01-16T08:20:12.360Z,924
2017-01-16T08:21:16.592Z,944
2017-01-16T08:22:22.879Z,1004
2017-01-16T08:23:28.866Z,1080
2017-01-16T08:24:33.112Z,1228
2017-01-16T08:25:38.317Z,1292
2017-01-16T08:26:43.525Z,1276
2017-01-16T08:27:48.739Z,1400
2017-01-16T08:28:53.938Z,1396
2017-01-16T08:30:00.068Z,1480
2017-01-16T08:31:06.252Z,1640
2017-01-16T08:32:11.455Z,1636
2017-01-16T08:33:16.636Z,1688
2017-01-16T08:34:21.803Z,1840
2017-01-16T08:35:27.972Z,1924
2017-01-16T08:36:34.131Z,1708
2017-01-16T08:37:39.342Z,1916
2017-01-16T08:38:45.505Z,2128
2017-01-16T08:39:51.669Z,1944
2017-01-16T08:40:55.977Z,2132
2017-01-16T08:42:01.176Z,2304
2017-01-16T08:43:07.462Z,2332
2017-01-16T08:44:10.208Z,2176
2017-01-16T08:45:15.410Z,2132
2017-01-16T08:46:21.624Z,2044
2017-01-16T08:47:27.809Z,2260
2017-01-16T08:48:33.970Z,2564
2017-01-16T08:49:40.154Z,2456
2017-01-16T08:50:43.375Z,2708
2017-01-16T08:51:48.328Z,3036
2017-01-16T08:52:54.483Z,3232
2017-01-16T08:53:59.739Z,3252
2017-01-16T08:55:05.922Z,3756
2017-01-16T08:56:11.125Z,3748
2017-01-16T08:57:16.323Z,3664
2017-01-16T08:58:22.484Z,3232
2017-01-16T08:59:28.649Z,3376
2017-01-16T09:00:33.910Z,3468
2017-01-16T09:01:39.108Z,3488
2017-01-16T09:02:43.341Z,3352
2017-01-16T09:03:48.537Z,3332
2017-01-16T09:04:53.815Z,3588
2017-01-16T09:05:59.019Z,3600
2017-01-16T09:07:04.235Z,3304
2017-01-16T09:08:10.535Z,3680
2017-01-16T09:09:15.831Z,3940
2017-01-16T09:10:21.027Z,4168
2017-01-16T09:11:27.203Z,4592
2017-01-16T09:12:33.420Z,4420
2017-01-16T09:13:39.604Z,4236
2017-01-16T09:14:44.772Z,4416
2017-01-16T09:15:50.042Z,4196
2017-01-16T09:16:55.350Z,4384
2017-01-16T09:18:01.507Z,4244
2017-01-16T09:19:06.722Z,3740
2017-01-16T09:20:11.937Z,3636
2017-01-16T09:21:17.222Z,3916
2017-01-16T09:22:23.381Z,4516
2017-01-16T09:23:29.551Z,4848
2017-01-16T09:24:35.725Z,5324
2017-01-16T09:25:40.042Z,5536
2017-01-16T09:26:45.215Z,5668
2017-01-16T09:27:50.412Z,4948
2017-01-16T09:28:56.582Z,5084
2017-01-16T09:30:01.785Z,5548
2017-01-16T09:31:06.998Z,6168
2017-01-16T09:32:13.161Z,7572
2017-01-16T09:33:18.355Z,8256
2017-01-16T09:34:24.529Z,11272
2017-01-16T09:35:29.733Z,15808
2017-01-16T09:36:35.906Z,14144
2017-01-16T09:37:41.132Z,13184
2017-01-16T09:38:46.295Z,12684
2017-01-16T09:39:51.494Z,8560
2017-01-16T09:40:57.762Z,8188
2017-01-16T09:42:01.592Z,7044
2017-01-16T09:43:06.799Z,10848
2017-01-16T09:44:11.992Z,10368
2017-01-16T09:45:16.197Z,10620
2017-01-16T09:46:20.400Z,8424
2017-01-16T09:47:24.717Z,7656
2017-01-16T09:48:29.933Z,7988
2017-01-16T09:49:34.192Z,10692
2017-01-16T09:50:39.394Z,6336
2017-01-16T09:51:43.643Z,8668
2017-01-16T09:52:49.794Z,7080
2017-01-16T09:53:56.009Z,7136
2017-01-16T09:55:00.241Z,6880
2017-01-16T09:56:04.470Z,6080
2017-01-16T09:57:09.676Z,5968
2017-01-16T09:58:14.879Z,9432
2017-01-16T09:59:20.077Z,9016
2017-01-16T10:00:26.245Z,12916
2017-01-16T10:01:31.538Z,6164
2017-01-16T10:02:36.736Z,5968
2017-01-16T10:03:41.942Z,7140
2017-01-16T10:04:47.141Z,7288
2017-01-16T10:05:52.343Z,7312
2017-01-16T10:06:57.552Z,5792
2017-01-16T10:08:02.720Z,6748
2017-01-16T10:09:07.958Z,7304
2017-01-16T10:10:14.132Z,6096
2017-01-16T10:11:18.360Z,5932
2017-01-16T10:12:23.625Z,7704
2017-01-16T10:13:28.822Z,10396
2017-01-16T10:14:33.087Z,9896
2017-01-16T10:15:39.256Z,7156
2017-01-16T10:16:44.460Z,7112
2017-01-16T10:17:49.631Z,7556
2017-01-16T10:18:55.832Z,6736
2017-01-16T10:20:01.987Z,6200
2017-01-16T10:21:08.154Z,5856
2017-01-16T10:22:11.534Z,5028
2017-01-16T10:23:17.814Z,6104
2017-01-16T10:24:23.978Z,6868
2017-01-16T10:25:30.147Z,6728
2017-01-16T10:26:33.428Z,6984
2017-01-16T10:27:39.598Z,6408
2017-01-16T10:28:44.809Z,6708
2017-01-16T10:29:51.068Z,7288
2017-01-16T10:30:55.393Z,6936
2017-01-16T10:32:01.564Z,7888
2017-01-16T10:33:06.354Z,6860
2017-01-16T10:34:11.554Z,6696
2017-01-16T10:35:14.789Z,7580
2017-01-16T10:36:19.028Z,11744
2017-01-16T10:37:25.228Z,19040
2017-01-16T10:38:29.515Z,12980
2017-01-16T10:39:34.690Z,7344
2017-01-16T10:40:39.892Z,6700
2017-01-16T10:41:46.067Z,8176
2017-01-16T10:42:51.316Z,17856
2017-01-16T10:43:57.497Z,12408
2017-01-16T10:45:03.676Z,13248
2017-01-16T10:46:08.001Z,13460
2017-01-16T10:47:12.113Z,8544
2017-01-16T10:48:18.331Z,8272
2017-01-16T10:49:22.558Z,6976
2017-01-16T10:50:26.927Z,6760
2017-01-16T10:51:32.137Z,6980
2017-01-16T10:52:37.309Z,6944
2017-01-16T10:53:43.522Z,6724
2017-01-16T10:54:47.750Z,7592
2017-01-16T10:55:53.003Z,9372
2017-01-16T10:56:58.306Z,16384
2017-01-16T10:58:03.515Z,20960
2017-01-16T10:59:08.719Z,15296
2017-01-16T11:00:12.999Z,16736
2017-01-16T11:01:18.161Z,9508
2017-01-16T11:02:21.424Z,7476
2017-01-16T11:03:27.594Z,7676
2017-01-16T11:04:32.796Z,8256
2017-01-16T11:05:38.011Z,8996
2017-01-16T11:06:43.182Z,9856
2017-01-16T11:07:49.354Z,10704
2017-01-16T11:08:54.527Z,10984
2017-01-16T11:09:59.735Z,12888
2017-01-16T11:11:05.900Z,19776
2017-01-16T11:12:11.104Z,14260
2017-01-16T11:13:16.271Z,9144
2017-01-16T11:14:21.473Z,7900
2017-01-16T11:15:27.641Z,7092
2017-01-16T11:16:32.846Z,6856
2017-01-16T11:17:38.054Z,7084
2017-01-16T11:18:42.289Z,7548
2017-01-16T11:19:46.529Z,7716
2017-01-16T11:20:52.692Z,7080
2017-01-16T11:21:58.951Z,7336
2017-01-16T11:23:04.103Z,7116
2017-01-16T11:24:10.278Z,6548
2017-01-16T11:25:15.485Z,6996
2017-01-16T11:26:20.688Z,8028
2017-01-16T11:27:25.858Z,7892
2017-01-16T11:28:30.098Z,7396
2017-01-16T11:29:34.397Z,6832
2017-01-16T11:30:40.578Z,6508
2017-01-16T11:31:44.553Z,6472
2017-01-16T11:32:49.745Z,7212
2017-01-16T11:33:54.954Z,7576
2017-01-16T11:34:59.166Z,7432
2017-01-16T11:36:04.384Z,6356
2017-01-16T11:37:09.612Z,6248
2017-01-16T11:38:13.819Z,5628
2017-01-16T11:39:17.997Z,5132
2017-01-16T11:40:23.178Z,5184
2017-01-16T11:41:29.348Z,5828
2017-01-16T11:42:33.575Z,6524
2017-01-16T11:43:39.897Z,6728
2017-01-16T11:44:44.109Z,6636
2017-01-16T11:45:50.274Z,6296
2017-01-16T11:46:56.457Z,6260
2017-01-16T11:48:02.619Z,5876
2017-01-16T11:49:07.843Z,6328
2017-01-16T11:50:14.009Z,6316
2017-01-16T11:51:19.311Z,5640
2017-01-16T11:52:23.517Z,5280
2017-01-16T11:53:29.696Z,4904
2017-01-16T11:54:34.863Z,4760
2017-01-16T11:55:40.074Z,4620
2017-01-16T11:56:46.252Z,4156
2017-01-16T11:57:51.502Z,4008
2017-01-16T11:58:57.640Z,3832
2017-01-16T12:00:02.843Z,3820
2017-01-16T12:01:08.375Z,3924
2017-01-16T12:02:13.634Z,4128
2017-01-16T12:03:19.803Z,4128
2017-01-16T12:04:24.982Z,3996
2017-01-16T12:05:31.137Z,3884
2017-01-16T12:06:36.333Z,4004
2017-01-16T12:07:41.602Z,3952
2017-01-16T12:08:47.825Z,3948
2017-01-16T12:09:53.019Z,4112
2017-01-16T12:10:57.248Z,4376
2017-01-16T12:12:03.418Z,4596
2017-01-16T12:13:08.621Z,4872
2017-01-16T12:14:14.787Z,5080
2017-01-16T12:15:19.966Z,5656
2017-01-16T12:16:25.194Z,6128
2017-01-16T12:17:29.437Z,6444
2017-01-16T12:18:34.612Z,6164
2017-01-16T12:19:40.780Z,5412
2017-01-16T12:20:45.980Z,4948
2017-01-16T12:21:52.146Z,4860
2017-01-16T12:22:57.402Z,4436
2017-01-16T12:24:03.561Z,4176
2017-01-16T12:25:08.880Z,4000
2017-01-16T12:26:15.036Z,4028
2017-01-16T12:27:20.241Z,4120
2017-01-16T12:28:26.402Z,4516
2017-01-16T12:29:32.576Z,4652
2017-01-16T12:30:37.774Z,4216
2017-01-16T12:31:42.992Z,4000
2017-01-16T12:32:49.165Z,3828
2017-01-16T12:33:54.358Z,3700
2017-01-16T12:34:58.563Z,3512
2017-01-16T12:36:03.763Z,3504
2017-01-16T12:37:07.958Z,3404
2017-01-16T12:38:12.158Z,3376
2017-01-16T12:39:18.344Z,3376
2017-01-16T12:40:23.551Z,3468
2017-01-16T12:41:27.780Z,3564
2017-01-16T12:42:33.963Z,3592
2017-01-16T12:43:38.197Z,3772
2017-01-16T12:44:42.448Z,3996
2017-01-16T12:45:47.728Z,4092
2017-01-16T12:46:51.930Z,4088
2017-01-16T12:47:58.094Z,4260
2017-01-16T12:49:03.262Z,4024
2017-01-16T12:50:07.465Z,3608
2017-01-16T12:51:12.655Z,3352
2017-01-16T12:52:18.822Z,3224
2017-01-16T12:53:24.025Z,3208
2017-01-16T12:54:30.172Z,3240
2017-01-16T12:55:34.406Z,3312
2017-01-16T12:56:38.696Z,3448
2017-01-16T12:57:42.930Z,3548
2017-01-16T12:58:48.142Z,3616
2017-01-16T12:59:54.310Z,3816
2017-01-16T13:00:59.502Z,3824
2017-01-16T13:02:04.675Z,3952
2017-01-16T13:03:10.855Z,3808
2017-01-16T13:04:16.052Z,3708
2017-01-16T13:05:21.266Z,3364
2017-01-16T13:06:25.717Z,3288
2017-01-16T13:07:30.502Z,3264
2017-01-16T13:08:36.688Z,3212
2017-01-16T13:09:41.888Z,3064
2017-01-16T13:10:48.140Z,2932
2017-01-16T13:11:54.230Z,2840
2017-01-16T13:13:00.403Z,2792
2017-01-16T13:14:05.600Z,2752
2017-01-16T13:15:10.801Z,2712
2017-01-16T13:16:14.068Z,2708
2017-01-16T13:17:20.213Z,2716
2017-01-16T13:18:26.385Z,2736
2017-01-16T13:19:32.067Z,2768
2017-01-16T13:20:38.195Z,2828
2017-01-16T13:21:42.427Z,2920
2017-01-16T13:22:47.632Z,3040
2017-01-16T13:23:52.768Z,3168
2017-01-16T13:24:57.972Z,3356
2017-01-16T13:26:04.140Z,3528
2017-01-16T13:27:09.305Z,3744
2017-01-16T13:28:15.466Z,3820
2017-01-16T13:29:19.681Z,3744
2017-01-16T13:30:25.843Z,3872
2017-01-16T13:31:32.062Z,3840
2017-01-16T13:32:38.184Z,3540
2017-01-16T13:33:43.359Z,3332
2017-01-16T13:34:46.628Z,3312
2017-01-16T13:35:50.932Z,3224
2017-01-16T13:36:56.098Z,3096
2017-01-16T13:38:02.271Z,2976
2017-01-16T13:39:08.440Z,2956
2017-01-16T13:40:14.644Z,3008
2017-01-16T13:41:19.815Z,3216
2017-01-16T13:42:25.979Z,3352
2017-01-16T13:43:32.177Z,3248
2017-01-16T13:44:38.345Z,3204
2017-01-16T13:45:41.623Z,3452
2017-01-16T13:46:47.764Z,3816
2017-01-16T13:47:53.919Z,3192
2017-01-16T13:49:00.084Z,2876
2017-01-16T13:50:06.260Z,2592
2017-01-16T13:51:12.425Z,2552
2017-01-16T13:52:15.655Z,2380
2017-01-16T13:53:20.011Z,2300
2017-01-16T13:54:25.216Z,2244
2017-01-16T13:55:29.458Z,2240
2017-01-16T13:56:34.667Z,2272
2017-01-16T13:57:40.842Z,2340
2017-01-16T13:58:47.129Z,2484
2017-01-16T13:59:53.291Z,2716
2017-01-16T14:00:58.485Z,2660
2017-01-16T14:02:03.663Z,2672
2017-01-16T14:03:07.899Z,2596
2017-01-16T14:04:13.105Z,2664
2017-01-16T14:05:19.281Z,2932
2017-01-16T14:06:25.451Z,3280
2017-01-16T14:07:29.685Z,3156
2017-01-16T14:08:35.857Z,2912
2017-01-16T14:09:40.113Z,2848
2017-01-16T14:10:45.346Z,2960
2017-01-16T14:11:51.527Z,2636
2017-01-16T14:12:55.754Z,2604
2017-01-16T14:13:59.990Z,2772
2017-01-16T14:15:05.242Z,2952
2017-01-16T14:16:10.435Z,3060
2017-01-16T14:17:14.646Z,2816
2017-01-16T14:18:18.859Z,2580
2017-01-16T14:19:24.092Z,2448
2017-01-16T14:20:28.346Z,2184
2017-01-16T14:21:33.540Z,2128
2017-01-16T14:22:39.712Z,2040
2017-01-16T14:23:44.916Z,1952
2017-01-16T14:24:48.283Z,1904
2017-01-16T14:25:52.520Z,1912
2017-01-16T14:26:57.724Z,1936
2017-01-16T14:28:03.928Z,1864
2017-01-16T14:29:09.130Z,1868
2017-01-16T14:30:14.328Z,1872
2017-01-16T14:31:18.561Z,1920
2017-01-16T14:32:23.751Z,1956
2017-01-16T14:33:28.950Z,1912
2017-01-16T14:34:34.506Z,1928
2017-01-16T14:35:39.678Z,1964
2017-01-16T14:36:42.939Z,1988
2017-01-16T14:37:48.137Z,1964
2017-01-16T14:38:53.328Z,1980
2017-01-16T14:39:57.579Z,2068
2017-01-16T14:41:03.734Z,2060
2017-01-16T14:42:08.924Z,2024
2017-01-16T14:43:13.161Z,1932
2017-01-16T14:44:19.432Z,1900
2017-01-16T14:45:21.734Z,1968
2017-01-16T14:46:26.907Z,1888
2017-01-16T14:47:31.139Z,1796
2017-01-16T14:48:36.341Z,1732
2017-01-16T14:49:41.630Z,1676
2017-01-16T14:50:43.906Z,1640
2017-01-16T14:51:50.067Z,1604
2017-01-16T14:52:56.229Z,1580
2017-01-16T14:54:02.395Z,1548
2017-01-16T14:55:07.606Z,1500
2017-01-16T14:56:11.843Z,1444
2017-01-16T14:57:17.041Z,1416
2017-01-16T14:58:22.239Z,1392
2017-01-16T14:59:27.462Z,1380
2017-01-16T15:00:33.671Z,1356
2017-01-16T15:01:38.836Z,1328
2017-01-16T15:02:45.045Z,1300
2017-01-16T15:03:49.258Z,1368
2017-01-16T15:04:52.488Z,1336
2017-01-16T15:05:58.662Z,1336
2017-01-16T15:07:01.961Z,1300
2017-01-16T15:08:07.157Z,1284
2017-01-16T15:09:13.318Z,1256
2017-01-16T15:10:18.514Z,1160
2017-01-16T15:11:23.708Z,1180
2017-01-16T15:12:27.937Z,1080
2017-01-16T15:13:34.077Z,1008